TimePST,TemperatureF,Dew PointF,Humidity,Sea Level PressureIn,VisibilityMPH,Wind Direction,Wind SpeedMPH,Gust SpeedMPH,PrecipitationIn,Events,Conditions,WindDirDegrees,DateUTC
12:53 AM,30.9,30.0,96,29.98,0.8,ENE,4.6,-,N/A,,Overcast,60,2013-02-05 08:53:00
1:45 AM,30.2,30.2,100,29.93,1.2,NE,3.5,-,N/A,,Overcast,40,2013-02-05 09:45:00
1:53 AM,30.9,30.9,100,29.98,1.2,NE,4.6,-,N/A,,Overcast,40,2013-02-05 09:53:00
2:22 AM,32.0,30.2,93,29.92,3.0,ENE,3.5,-,N/A,,Overcast,70,2013-02-05 10:22:00
2:53 AM,32.0,30.9,96,29.96,3.0,Calm,Calm,-,N/A,,Overcast,0,2013-02-05 10:53:00
3:53 AM,32.0,30.9,96,29.93,4.0,ENE,5.8,-,N/A,,Overcast,60,2013-02-05 11:53:00
4:53 AM,32.0,30.0,92,29.89,5.0,ENE,3.5,-,N/A,,Overcast,70,2013-02-05 12:53:00
5:53 AM,30.0,28.9,96,29.90,4.0,Calm,Calm,-,N/A,,Mostly Cloudy,0,2013-02-05 13:53:00
6:43 AM,30.2,28.4,93,29.84,1.5,Calm,Calm,-,N/A,,Mostly Cloudy,0,2013-02-05 14:43:00
6:53 AM,30.0,28.0,92,29.89,1.5,Calm,Calm,-,N/A,,Mostly Cloudy,0,2013-02-05 14:53:00
7:53 AM,30.9,30.0,96,29.89,2.0,Calm,Calm,-,N/A,,Mostly Cloudy,0,2013-02-05 15:53:00
8:18 AM,30.2,28.4,93,29.83,4.0,Calm,Calm,-,N/A,,Mostly Cloudy,0,2013-02-05 16:18:00
8:53 AM,30.9,30.0,96,29.89,8.0,Calm,Calm,-,N/A,Fog,Patches of Fog,0,2013-02-05 16:53:00
9:53 AM,35.1,32.0,89,29.88,10.0,SSE,4.6,-,N/A,,Mostly Cloudy,160,2013-02-05 17:53:00
10:53 AM,39.0,33.1,79,29.87,10.0,South,8.1,-,N/A,,Mostly Cloudy,190,2013-02-05 18:53:00
11:53 AM,39.9,33.1,77,29.86,10.0,South,10.4,-,N/A,,Overcast,190,2013-02-05 19:53:00
12:53 PM,39.9,33.1,77,29.85,10.0,SSW,11.5,-,N/A,,Overcast,210,2013-02-05 20:53:00
1:53 PM,39.0,34.0,82,29.84,8.0,SSW,13.8,-,0.00,Rain,Light Rain,210,2013-02-05 21:53:00
2:53 PM,39.9,34.0,79,29.85,10.0,SSW,13.8,-,0.00,Rain,Light Rain,200,2013-02-05 22:53:00
3:53 PM,39.9,34.0,79,29.85,10.0,South,10.4,-,0.00,,Mostly Cloudy,190,2013-02-05 23:53:00
4:53 PM,37.9,33.1,83,29.87,10.0,SSW,10.4,-,N/A,,Mostly Cloudy,210,2013-02-06 00:53:00
5:22 PM,37.4,33.8,87,29.83,10.0,SSW,8.1,-,N/A,,Mostly Cloudy,200,2013-02-06 01:22:00
5:53 PM,37.0,34.0,89,29.88,10.0,South,9.2,-,N/A,,Mostly Cloudy,190,2013-02-06 01:53:00
6:53 PM,37.0,34.0,89,29.89,10.0,South,12.7,-,N/A,,Scattered Clouds,190,2013-02-06 02:53:00
7:53 PM,37.0,34.0,89,29.89,10.0,South,12.7,-,N/A,,Mostly Cloudy,190,2013-02-06 03:53:00
8:53 PM,37.0,33.1,86,29.90,10.0,South,9.2,-,N/A,,Mostly Cloudy,180,2013-02-06 04:53:00
9:53 PM,36.0,33.1,89,29.91,10.0,South,10.4,-,N/A,,Scattered Clouds,180,2013-02-06 05:53:00
10:53 PM,35.6,32.0,87,29.88,10.0,South,10.4,-,N/A,,Scattered Clouds,180,2013-02-06 06:53:00
11:53 PM,34.0,30.9,89,29.93,10.0,South,9.2,-,N/A,,Scattered Clouds,190,2013-02-06 07:53:00